sensor_id;sensor_type;location;lat;lon;timestamp;temperature;humidity
20231;DHT22;10274;49.022;9.338;2022-09-16T00:00:06;12.70;99.90
20231;DHT22;10274;49.022;9.338;2022-09-16T00:02:34;12.70;99.90
20231;DHT22;10274;49.022;9.338;2022-09-16T00:05:01;12.70;99.90
20231;DHT22;10274;49.022;9.338;2022-09-16T00:07:28;12.80;99.90
20231;DHT22;10274;49.022;9.338;2022-09-16T00:09:55;12.80;99.90
20231;DHT22;10274;49.022;9.338;2022-09-16T00:12:22;12.90;99.90
20231;DHT22;10274;49.022;9.338;2022-09-16T00:14:50;13.00;99.90
20231;DHT22;10274;49.022;9.338;2022-09-16T00:17:17;12.90;99.90
20231;DHT22;10274;49.022;9.338;2022-09-16T00:19:44;12.80;99.90
20231;DHT22;10274;49.022;9.338;2022-09-16T00:22:11;12.80;99.90
20231;DHT22;10274;49.022;9.338;2022-09-16T00:24:37;12.80;99.90
20231;DHT22;10274;49.022;9.338;2022-09-16T00:27:04;12.90;99.90
20231;DHT22;10274;49.022;9.338;2022-09-16T00:29:31;12.90;99.90
20231;DHT22;10274;49.022;9.338;2022-09-16T00:31:59;12.90;99.90
20231;DHT22;10274;49.022;9.338;2022-09-16T00:34:25;12.80;99.90
20231;DHT22;10274;49.022;9.338;2022-09-16T00:36:52;12.90;99.90
20231;DHT22;10274;49.022;9.338;2022-09-16T00:39:19;12.90;99.90
20231;DHT22;10274;49.022;9.338;2022-09-16T00:41:45;13.00;99.90
20231;DHT22;10274;49.022;9.338;2022-09-16T00:47:10;13.00;99.90
20231;DHT22;10274;49.022;9.338;2022-09-16T00:49:38;12.90;99.90
20231;DHT22;10274;49.022;9.338;2022-09-16T00:52:05;13.00;99.90
20231;DHT22;10274;49.022;9.338;2022-09-16T00:54:34;13.00;99.90
20231;DHT22;10274;49.022;9.338;2022-09-16T00:57:05;12.90;99.90
20231;DHT22;10274;49.022;9.338;2022-09-16T00:59:36;12.90;99.90
20231;DHT22;10274;49.022;9.338;2022-09-16T01:02:08;13.00;99.90
20231;DHT22;10274;49.022;9.338;2022-09-16T01:04:41;13.00;99.90
20231;DHT22;10274;49.022;9.338;2022-09-16T01:07:09;13.00;99.90
20231;DHT22;10274;49.022;9.338;2022-09-16T01:09:37;13.00;99.90
20231;DHT22;10274;49.022;9.338;2022-09-16T01:12:04;13.10;99.90
20231;DHT22;10274;49.022;9.338;2022-09-16T01:14:31;13.20;99.90
20231;DHT22;10274;49.022;9.338;2022-09-16T01:17:20;13.20;99.90
20231;DHT22;10274;49.022;9.338;2022-09-16T01:23:03;13.20;99.90
20231;DHT22;10274;49.022;9.338;2022-09-16T01:25:42;13.10;99.90
20231;DHT22;10274;49.022;9.338;2022-09-16T01:28:45;13.30;99.90
20231;DHT22;10274;49.022;9.338;2022-09-16T01:31:25;13.10;99.90
20231;DHT22;10274;49.022;9.338;2022-09-16T01:34:00;13.30;99.90
20231;DHT22;10274;49.022;9.338;2022-09-16T01:36:36;13.30;99.90
20231;DHT22;10274;49.022;9.338;2022-09-16T01:39:19;13.30;99.90
20231;DHT22;10274;49.022;9.338;2022-09-16T01:42:11;13.30;99.90
20231;DHT22;10274;49.022;9.338;2022-09-16T01:44:46;13.40;99.90
20231;DHT22;10274;49.022;9.338;2022-09-16T01:47:19;13.30;99.90
20231;DHT22;10274;49.022;9.338;2022-09-16T01:49:56;13.30;99.90
20231;DHT22;10274;49.022;9.338;2022-09-16T01:52:34;13.40;99.90
20231;DHT22;10274;49.022;9.338;2022-09-16T01:55:05;13.40;99.90
20231;DHT22;10274;49.022;9.338;2022-09-16T01:57:36;13.30;99.90
20231;DHT22;10274;49.022;9.338;2022-09-16T02:00:07;13.40;99.90
20231;DHT22;10274;49.022;9.338;2022-09-16T02:02:40;13.40;99.90
20231;DHT22;10274;49.022;9.338;2022-09-16T02:05:11;13.40;99.90
20231;DHT22;10274;49.022;9.338;2022-09-16T02:07:41;13.40;99.90
20231;DHT22;10274;49.022;9.338;2022-09-16T02:10:14;13.30;99.90
20231;DHT22;10274;49.022;9.338;2022-09-16T02:12:44;13.30;99.90
20231;DHT22;10274;49.022;9.338;2022-09-16T02:15:15;13.40;99.90
20231;DHT22;10274;49.022;9.338;2022-09-16T02:17:50;13.40;99.90
20231;DHT22;10274;49.022;9.338;2022-09-16T02:20:20;13.30;99.90
20231;DHT22;10274;49.022;9.338;2022-09-16T02:22:55;13.30;99.90
20231;DHT22;10274;49.022;9.338;2022-09-16T02:25:23;13.30;99.90
20231;DHT22;10274;49.022;9.338;2022-09-16T02:27:50;13.40;99.90
20231;DHT22;10274;49.022;9.338;2022-09-16T02:30:20;13.30;99.90
20231;DHT22;10274;49.022;9.338;2022-09-16T02:32:52;13.30;99.90
20231;DHT22;10274;49.022;9.338;2022-09-16T02:35:20;13.40;99.90
20231;DHT22;10274;49.022;9.338;2022-09-16T02:37:50;13.40;99.90
20231;DHT22;10274;49.022;9.338;2022-09-16T02:40:21;13.30;99.90
20231;DHT22;10274;49.022;9.338;2022-09-16T02:42:49;13.30;99.90
20231;DHT22;10274;49.022;9.338;2022-09-16T02:45:16;13.30;99.90
20231;DHT22;10274;49.022;9.338;2022-09-16T02:47:56;13.20;99.90
20231;DHT22;10274;49.022;9.338;2022-09-16T02:50:29;13.20;99.90
20231;DHT22;10274;49.022;9.338;2022-09-16T02:53:01;13.20;99.90
20231;DHT22;10274;49.022;9.338;2022-09-16T02:55:34;13.10;99.90
20231;DHT22;10274;49.022;9.338;2022-09-16T02:58:04;13.20;99.90
20231;DHT22;10274;49.022;9.338;2022-09-16T03:00:32;13.20;99.90
20231;DHT22;10274;49.022;9.338;2022-09-16T03:03:00;13.20;99.90
20231;DHT22;10274;49.022;9.338;2022-09-16T03:05:27;13.10;99.90
20231;DHT22;10274;49.022;9.338;2022-09-16T03:07:54;13.10;99.90
20231;DHT22;10274;49.022;9.338;2022-09-16T03:10:23;13.10;99.90
20231;DHT22;10274;49.022;9.338;2022-09-16T03:12:55;13.10;99.90
20231;DHT22;10274;49.022;9.338;2022-09-16T03:15:44;13.10;99.90
20231;DHT22;10274;49.022;9.338;2022-09-16T03:18:26;13.10;99.90
20231;DHT22;10274;49.022;9.338;2022-09-16T03:20:59;13.00;99.90
20231;DHT22;10274;49.022;9.338;2022-09-16T03:23:40;13.10;99.90
20231;DHT22;10274;49.022;9.338;2022-09-16T03:26:13;12.90;99.90
20231;DHT22;10274;49.022;9.338;2022-09-16T03:28:46;12.90;99.90
20231;DHT22;10274;49.022;9.338;2022-09-16T03:31:17;12.90;99.90
20231;DHT22;10274;49.022;9.338;2022-09-16T03:33:52;12.90;99.90
20231;DHT22;10274;49.022;9.338;2022-09-16T03:36:25;12.80;99.90
20231;DHT22;10274;49.022;9.338;2022-09-16T03:38:56;12.70;99.90
20231;DHT22;10274;49.022;9.338;2022-09-16T03:41:24;12.70;99.90
20231;DHT22;10274;49.022;9.338;2022-09-16T03:43:53;12.80;99.90
20231;DHT22;10274;49.022;9.338;2022-09-16T03:46:20;12.80;99.90
20231;DHT22;10274;49.022;9.338;2022-09-16T03:48:48;12.80;99.90
20231;DHT22;10274;49.022;9.338;2022-09-16T03:51:15;12.90;99.90
20231;DHT22;10274;49.022;9.338;2022-09-16T03:53:42;12.90;99.90
20231;DHT22;10274;49.022;9.338;2022-09-16T03:56:08;13.00;99.90
20231;DHT22;10274;49.022;9.338;2022-09-16T03:58:35;13.00;99.90
20231;DHT22;10274;49.022;9.338;2022-09-16T04:01:02;13.00;99.90
20231;DHT22;10274;49.022;9.338;2022-09-16T04:03:29;12.90;99.90
20231;DHT22;10274;49.022;9.338;2022-09-16T04:05:58;12.90;99.90
20231;DHT22;10274;49.022;9.338;2022-09-16T04:08:24;12.70;99.90
20231;DHT22;10274;49.022;9.338;2022-09-16T04:10:54;12.80;99.90
20231;DHT22;10274;49.022;9.338;2022-09-16T04:13:21;12.80;99.90
20231;DHT22;10274;49.022;9.338;2022-09-16T04:15:49;12.70;99.90
20231;DHT22;10274;49.022;9.338;2022-09-16T04:18:16;12.60;99.90
20231;DHT22;10274;49.022;9.338;2022-09-16T04:20:43;12.70;99.90
20231;DHT22;10274;49.022;9.338;2022-09-16T04:23:11;12.80;99.90
20231;DHT22;10274;49.022;9.338;2022-09-16T04:25:37;12.70;99.90
20231;DHT22;10274;49.022;9.338;2022-09-16T04:28:05;12.80;99.90
20231;DHT22;10274;49.022;9.338;2022-09-16T04:30:32;12.90;99.90
20231;DHT22;10274;49.022;9.338;2022-09-16T04:32:58;12.90;99.90
20231;DHT22;10274;49.022;9.338;2022-09-16T04:35:25;12.80;99.90
20231;DHT22;10274;49.022;9.338;2022-09-16T04:37:52;12.80;99.90
20231;DHT22;10274;49.022;9.338;2022-09-16T04:40:20;12.80;99.90
20231;DHT22;10274;49.022;9.338;2022-09-16T04:42:50;12.80;99.90
20231;DHT22;10274;49.022;9.338;2022-09-16T04:45:17;12.80;99.90
20231;DHT22;10274;49.022;9.338;2022-09-16T04:47:44;12.80;99.90
20231;DHT22;10274;49.022;9.338;2022-09-16T04:50:11;12.90;99.90
20231;DHT22;10274;49.022;9.338;2022-09-16T04:52:37;12.80;99.90
20231;DHT22;10274;49.022;9.338;2022-09-16T04:55:04;12.80;99.90
20231;DHT22;10274;49.022;9.338;2022-09-16T04:57:33;12.80;99.90
20231;DHT22;10274;49.022;9.338;2022-09-16T05:00:00;12.80;99.90
20231;DHT22;10274;49.022;9.338;2022-09-16T05:02:26;12.80;99.90
20231;DHT22;10274;49.022;9.338;2022-09-16T05:04:54;12.80;99.90
20231;DHT22;10274;49.022;9.338;2022-09-16T05:07:21;12.80;99.90
20231;DHT22;10274;49.022;9.338;2022-09-16T05:09:47;12.90;99.90
20231;DHT22;10274;49.022;9.338;2022-09-16T05:12:14;13.00;99.90
20231;DHT22;10274;49.022;9.338;2022-09-16T05:14:42;12.90;99.90
20231;DHT22;10274;49.022;9.338;2022-09-16T05:17:09;13.00;99.90
20231;DHT22;10274;49.022;9.338;2022-09-16T05:19:35;13.00;99.90
20231;DHT22;10274;49.022;9.338;2022-09-16T05:22:02;13.00;99.90
20231;DHT22;10274;49.022;9.338;2022-09-16T05:24:33;13.00;99.90
20231;DHT22;10274;49.022;9.338;2022-09-16T05:27:00;12.90;99.90
20231;DHT22;10274;49.022;9.338;2022-09-16T05:29:27;12.90;99.90
20231;DHT22;10274;49.022;9.338;2022-09-16T05:31:55;12.90;99.90
20231;DHT22;10274;49.022;9.338;2022-09-16T05:34:23;12.90;99.90
20231;DHT22;10274;49.022;9.338;2022-09-16T05:36:53;13.00;99.90
20231;DHT22;10274;49.022;9.338;2022-09-16T05:39:21;12.90;99.90
20231;DHT22;10274;49.022;9.338;2022-09-16T05:41:49;12.90;99.90
20231;DHT22;10274;49.022;9.338;2022-09-16T05:44:15;13.00;99.90
20231;DHT22;10274;49.022;9.338;2022-09-16T05:46:42;13.10;99.90
20231;DHT22;10274;49.022;9.338;2022-09-16T05:49:10;13.00;99.90
20231;DHT22;10274;49.022;9.338;2022-09-16T05:51:37;12.90;99.90
20231;DHT22;10274;49.022;9.338;2022-09-16T05:54:05;12.90;99.90
20231;DHT22;10274;49.022;9.338;2022-09-16T05:56:32;13.00;99.90
20231;DHT22;10274;49.022;9.338;2022-09-16T05:59:00;13.00;99.90
20231;DHT22;10274;49.022;9.338;2022-09-16T06:01:30;13.00;99.90
20231;DHT22;10274;49.022;9.338;2022-09-16T06:03:59;13.00;99.90
20231;DHT22;10274;49.022;9.338;2022-09-16T06:06:29;13.10;99.90
20231;DHT22;10274;49.022;9.338;2022-09-16T06:08:57;13.10;99.90
20231;DHT22;10274;49.022;9.338;2022-09-16T06:11:26;13.00;99.90
20231;DHT22;10274;49.022;9.338;2022-09-16T06:13:54;13.20;99.90
20231;DHT22;10274;49.022;9.338;2022-09-16T06:16:21;13.20;99.90
20231;DHT22;10274;49.022;9.338;2022-09-16T06:18:50;13.10;99.90
20231;DHT22;10274;49.022;9.338;2022-09-16T06:21:16;13.10;99.90
20231;DHT22;10274;49.022;9.338;2022-09-16T06:23:45;13.10;99.90
20231;DHT22;10274;49.022;9.338;2022-09-16T06:26:13;13.00;99.90
20231;DHT22;10274;49.022;9.338;2022-09-16T06:28:41;13.10;99.90
20231;DHT22;10274;49.022;9.338;2022-09-16T06:31:10;13.10;99.90
20231;DHT22;10274;49.022;9.338;2022-09-16T06:33:37;13.00;99.90
20231;DHT22;10274;49.022;9.338;2022-09-16T06:36:05;13.00;99.90
20231;DHT22;10274;49.022;9.338;2022-09-16T06:38:32;12.90;99.90
20231;DHT22;10274;49.022;9.338;2022-09-16T06:41:01;12.90;99.90
20231;DHT22;10274;49.022;9.338;2022-09-16T06:43:28;12.90;99.90
20231;DHT22;10274;49.022;9.338;2022-09-16T06:45:56;12.90;99.90
20231;DHT22;10274;49.022;9.338;2022-09-16T06:48:23;12.90;99.90
20231;DHT22;10274;49.022;9.338;2022-09-16T06:50:56;12.90;99.90
20231;DHT22;10274;49.022;9.338;2022-09-16T06:53:23;12.90;99.90
20231;DHT22;10274;49.022;9.338;2022-09-16T06:55:50;12.90;99.90
20231;DHT22;10274;49.022;9.338;2022-09-16T06:58:18;12.80;99.90
20231;DHT22;10274;49.022;9.338;2022-09-16T07:00:45;12.90;99.90
20231;DHT22;10274;49.022;9.338;2022-09-16T07:03:12;12.80;99.90
20231;DHT22;10274;49.022;9.338;2022-09-16T07:05:38;12.90;99.90
20231;DHT22;10274;49.022;9.338;2022-09-16T07:08:05;12.90;99.90
20231;DHT22;10274;49.022;9.338;2022-09-16T07:10:32;12.80;99.90
20231;DHT22;10274;49.022;9.338;2022-09-16T07:12:58;12.80;99.90
20231;DHT22;10274;49.022;9.338;2022-09-16T07:15:26;12.80;99.90
20231;DHT22;10274;49.022;9.338;2022-09-16T07:17:53;12.80;99.90
20231;DHT22;10274;49.022;9.338;2022-09-16T07:20:20;12.80;99.90
20231;DHT22;10274;49.022;9.338;2022-09-16T07:22:47;12.90;99.90
20231;DHT22;10274;49.022;9.338;2022-09-16T07:25:15;12.90;99.90
20231;DHT22;10274;49.022;9.338;2022-09-16T07:27:42;12.90;99.90
20231;DHT22;10274;49.022;9.338;2022-09-16T07:30:09;12.90;99.90
20231;DHT22;10274;49.022;9.338;2022-09-16T07:32:37;13.00;99.90
20231;DHT22;10274;49.022;9.338;2022-09-16T07:35:04;13.10;99.90
20231;DHT22;10274;49.022;9.338;2022-09-16T07:37:31;13.10;99.90
20231;DHT22;10274;49.022;9.338;2022-09-16T07:40:00;13.10;99.90
20231;DHT22;10274;49.022;9.338;2022-09-16T07:42:28;13.20;99.90
20231;DHT22;10274;49.022;9.338;2022-09-16T07:44:54;13.20;99.90
20231;DHT22;10274;49.022;9.338;2022-09-16T07:47:21;13.30;99.90
20231;DHT22;10274;49.022;9.338;2022-09-16T07:49:49;13.30;99.90
20231;DHT22;10274;49.022;9.338;2022-09-16T07:52:20;13.30;99.90
20231;DHT22;10274;49.022;9.338;2022-09-16T07:54:47;13.30;99.90
20231;DHT22;10274;49.022;9.338;2022-09-16T07:57:14;13.30;99.90
20231;DHT22;10274;49.022;9.338;2022-09-16T07:59:41;13.40;99.90
20231;DHT22;10274;49.022;9.338;2022-09-16T08:02:08;13.30;99.90
20231;DHT22;10274;49.022;9.338;2022-09-16T08:04:35;13.50;99.90
20231;DHT22;10274;49.022;9.338;2022-09-16T08:07:03;13.50;90.80
20231;DHT22;10274;49.022;9.338;2022-09-16T08:09:30;13.70;99.90
20231;DHT22;10274;49.022;9.338;2022-09-16T08:11:57;13.70;99.90
20231;DHT22;10274;49.022;9.338;2022-09-16T08:14:24;13.60;99.90
20231;DHT22;10274;49.022;9.338;2022-09-16T08:16:50;13.60;99.90
20231;DHT22;10274;49.022;9.338;2022-09-16T08:19:17;13.60;99.90
20231;DHT22;10274;49.022;9.338;2022-09-16T08:21:45;13.60;99.90
20231;DHT22;10274;49.022;9.338;2022-09-16T08:24:13;13.50;99.90
20231;DHT22;10274;49.022;9.338;2022-09-16T08:26:40;13.50;99.90
20231;DHT22;10274;49.022;9.338;2022-09-16T08:29:07;13.60;99.90
20231;DHT22;10274;49.022;9.338;2022-09-16T08:31:34;13.70;82.40
20231;DHT22;10274;49.022;9.338;2022-09-16T08:34:00;13.60;78.30
20231;DHT22;10274;49.022;9.338;2022-09-16T08:36:27;13.60;71.00
20231;DHT22;10274;49.022;9.338;2022-09-16T08:38:55;13.60;54.40
20231;DHT22;10274;49.022;9.338;2022-09-16T08:41:38;13.70;96.40
20231;DHT22;10274;49.022;9.338;2022-09-16T08:44:15;13.70;99.20
20231;DHT22;10274;49.022;9.338;2022-09-16T08:46:49;13.80;68.70
20231;DHT22;10274;49.022;9.338;2022-09-16T08:49:20;13.80;64.60
20231;DHT22;10274;49.022;9.338;2022-09-16T08:51:51;13.80;98.90
20231;DHT22;10274;49.022;9.338;2022-09-16T08:54:26;13.70;58.80
20231;DHT22;10274;49.022;9.338;2022-09-16T08:56:58;13.60;73.10
20231;DHT22;10274;49.022;9.338;2022-09-16T08:59:29;13.70;92.30
20231;DHT22;10274;49.022;9.338;2022-09-16T09:02:07;13.60;91.50
20231;DHT22;10274;49.022;9.338;2022-09-16T09:04:38;13.60;81.70
20231;DHT22;10274;49.022;9.338;2022-09-16T09:07:13;13.60;93.40
20231;DHT22;10274;49.022;9.338;2022-09-16T09:09:50;13.80;96.30
20231;DHT22;10274;49.022;9.338;2022-09-16T09:12:27;13.80;54.60
20231;DHT22;10274;49.022;9.338;2022-09-16T09:15:10;14.00;92.10
20231;DHT22;10274;49.022;9.338;2022-09-16T09:17:50;14.10;94.50
20231;DHT22;10274;49.022;9.338;2022-09-16T09:20:29;14.00;88.50
20231;DHT22;10274;49.022;9.338;2022-09-16T09:23:12;13.90;75.70
20231;DHT22;10274;49.022;9.338;2022-09-16T09:25:54;14.10;91.80
20231;DHT22;10274;49.022;9.338;2022-09-16T09:28:42;14.00;73.20
20231;DHT22;10274;49.022;9.338;2022-09-16T09:31:17;14.20;63.20
20231;DHT22;10274;49.022;9.338;2022-09-16T09:33:52;14.10;18.90
20231;DHT22;10274;49.022;9.338;2022-09-16T09:36:36;14.00;39.20
20231;DHT22;10274;49.022;9.338;2022-09-16T09:39:24;14.00;51.70
20231;DHT22;10274;49.022;9.338;2022-09-16T09:41:56;14.10;87.50
20231;DHT22;10274;49.022;9.338;2022-09-16T09:44:35;14.20;87.50
20231;DHT22;10274;49.022;9.338;2022-09-16T09:47:09;14.00;91.30
20231;DHT22;10274;49.022;9.338;2022-09-16T09:49:40;14.20;88.10
20231;DHT22;10274;49.022;9.338;2022-09-16T09:52:13;14.20;85.60
20231;DHT22;10274;49.022;9.338;2022-09-16T09:54:43;14.20;62.40
20231;DHT22;10274;49.022;9.338;2022-09-16T09:57:17;14.30;53.40
20231;DHT22;10274;49.022;9.338;2022-09-16T09:59:58;14.50;13.70
20231;DHT22;10274;49.022;9.338;2022-09-16T10:02:26;14.40;54.80
20231;DHT22;10274;49.022;9.338;2022-09-16T10:04:53;14.70;16.00
20231;DHT22;10274;49.022;9.338;2022-09-16T10:07:22;14.70;50.00
20231;DHT22;10274;49.022;9.338;2022-09-16T10:09:53;14.50;54.40
20231;DHT22;10274;49.022;9.338;2022-09-16T10:12:29;14.50;67.00
20231;DHT22;10274;49.022;9.338;2022-09-16T10:14:58;14.30;35.40
20231;DHT22;10274;49.022;9.338;2022-09-16T10:17:26;14.10;36.50
20231;DHT22;10274;49.022;9.338;2022-09-16T10:19:56;13.90;43.90
20231;DHT22;10274;49.022;9.338;2022-09-16T10:22:25;13.90;96.20
20231;DHT22;10274;49.022;9.338;2022-09-16T10:24:55;13.90;90.20
20231;DHT22;10274;49.022;9.338;2022-09-16T10:27:24;14.00;86.50
20231;DHT22;10274;49.022;9.338;2022-09-16T10:30:12;13.90;93.50
20231;DHT22;10274;49.022;9.338;2022-09-16T10:32:46;13.70;94.70
20231;DHT22;10274;49.022;9.338;2022-09-16T10:35:17;13.70;99.90
20231;DHT22;10274;49.022;9.338;2022-09-16T10:37:48;13.70;99.90
20231;DHT22;10274;49.022;9.338;2022-09-16T10:40:16;13.80;99.90
20231;DHT22;10274;49.022;9.338;2022-09-16T10:42:45;13.70;96.20
20231;DHT22;10274;49.022;9.338;2022-09-16T10:45:23;13.70;99.90
20231;DHT22;10274;49.022;9.338;2022-09-16T10:47:53;13.80;99.90
20231;DHT22;10274;49.022;9.338;2022-09-16T10:50:21;13.80;99.90
20231;DHT22;10274;49.022;9.338;2022-09-16T10:52:48;13.80;99.90
20231;DHT22;10274;49.022;9.338;2022-09-16T10:55:27;13.90;99.90
20231;DHT22;10274;49.022;9.338;2022-09-16T10:58:06;13.90;99.90
20231;DHT22;10274;49.022;9.338;2022-09-16T11:00:42;13.90;98.40
20231;DHT22;10274;49.022;9.338;2022-09-16T11:06:17;13.80;99.90
20231;DHT22;10274;49.022;9.338;2022-09-16T11:08:55;13.80;92.00
20231;DHT22;10274;49.022;9.338;2022-09-16T11:11:37;13.80;87.60
20231;DHT22;10274;49.022;9.338;2022-09-16T11:14:11;13.80;95.40
20231;DHT22;10274;49.022;9.338;2022-09-16T11:16:53;13.90;77.20
20231;DHT22;10274;49.022;9.338;2022-09-16T11:19:31;13.90;78.50
20231;DHT22;10274;49.022;9.338;2022-09-16T11:22:08;14.10;78.60
20231;DHT22;10274;49.022;9.338;2022-09-16T11:24:58;14.10;33.20
20231;DHT22;10274;49.022;9.338;2022-09-16T11:27:35;14.30;34.70
20231;DHT22;10274;49.022;9.338;2022-09-16T11:30:08;14.30;42.90
20231;DHT22;10274;49.022;9.338;2022-09-16T11:32:59;14.50;32.30
20231;DHT22;10274;49.022;9.338;2022-09-16T11:35:41;14.60;37.50
20231;DHT22;10274;49.022;9.338;2022-09-16T11:38:17;14.70;1.00
20231;DHT22;10274;49.022;9.338;2022-09-16T11:40:52;14.80;1.00
20231;DHT22;10274;49.022;9.338;2022-09-16T11:43:35;14.80;1.00
20231;DHT22;10274;49.022;9.338;2022-09-16T11:46:06;14.80;1.00
20231;DHT22;10274;49.022;9.338;2022-09-16T11:48:49;14.70;1.00
20231;DHT22;10274;49.022;9.338;2022-09-16T11:51:29;14.60;1.00
20231;DHT22;10274;49.022;9.338;2022-09-16T11:54:08;14.60;1.00
20231;DHT22;10274;49.022;9.338;2022-09-16T11:56:43;14.70;1.00
20231;DHT22;10274;49.022;9.338;2022-09-16T11:59:21;14.80;1.00
20231;DHT22;10274;49.022;9.338;2022-09-16T12:01:52;14.90;1.00
20231;DHT22;10274;49.022;9.338;2022-09-16T12:04:25;14.90;1.00
20231;DHT22;10274;49.022;9.338;2022-09-16T12:06:59;15.00;1.00
20231;DHT22;10274;49.022;9.338;2022-09-16T12:09:35;15.10;1.00
20231;DHT22;10274;49.022;9.338;2022-09-16T12:12:09;15.40;1.00
20231;DHT22;10274;49.022;9.338;2022-09-16T12:14:40;15.60;99.90
20231;DHT22;10274;49.022;9.338;2022-09-16T12:17:12;15.90;1.00
20231;DHT22;10274;49.022;9.338;2022-09-16T12:19:45;15.90;99.90
20231;DHT22;10274;49.022;9.338;2022-09-16T12:22:15;15.90;1.00
20231;DHT22;10274;49.022;9.338;2022-09-16T12:24:47;15.60;4.20
20231;DHT22;10274;49.022;9.338;2022-09-16T12:27:27;15.60;99.90
20231;DHT22;10274;49.022;9.338;2022-09-16T12:30:00;15.70;1.00
20231;DHT22;10274;49.022;9.338;2022-09-16T12:32:34;15.60;1.00
20231;DHT22;10274;49.022;9.338;2022-09-16T12:35:11;15.60;1.00
20231;DHT22;10274;49.022;9.338;2022-09-16T12:37:44;15.40;1.00
20231;DHT22;10274;49.022;9.338;2022-09-16T12:40:16;15.30;1.00
20231;DHT22;10274;49.022;9.338;2022-09-16T12:43:09;15.30;1.00
20231;DHT22;10274;49.022;9.338;2022-09-16T12:46:24;15.20;1.00
20231;DHT22;10274;49.022;9.338;2022-09-16T12:52:23;15.30;99.90
20231;DHT22;10274;49.022;9.338;2022-09-16T12:58:27;16.20;99.90
20231;DHT22;10274;49.022;9.338;2022-09-16T13:01:09;16.50;1.00
20231;DHT22;10274;49.022;9.338;2022-09-16T13:03:41;16.40;48.70
20231;DHT22;10274;49.022;9.338;2022-09-16T13:06:19;16.30;1.00
20231;DHT22;10274;49.022;9.338;2022-09-16T13:08:49;16.30;99.90
20231;DHT22;10274;49.022;9.338;2022-09-16T13:11:19;16.00;99.90
20231;DHT22;10274;49.022;9.338;2022-09-16T13:13:49;15.90;99.90
20231;DHT22;10274;49.022;9.338;2022-09-16T13:16:27;16.00;99.90
20231;DHT22;10274;49.022;9.338;2022-09-16T13:19:18;16.00;1.00
20231;DHT22;10274;49.022;9.338;2022-09-16T13:21:47;15.90;66.30
20231;DHT22;10274;49.022;9.338;2022-09-16T13:24:22;16.50;99.90
20231;DHT22;10274;49.022;9.338;2022-09-16T13:26:50;17.70;1.00
20231;DHT22;10274;49.022;9.338;2022-09-16T13:29:37;18.10;4.20
20231;DHT22;10274;49.022;9.338;2022-09-16T13:32:04;18.30;1.00
20231;DHT22;10274;49.022;9.338;2022-09-16T13:34:31;18.00;1.00
20231;DHT22;10274;49.022;9.338;2022-09-16T13:36:57;18.00;1.00
20231;DHT22;10274;49.022;9.338;2022-09-16T13:39:30;17.90;1.00
20231;DHT22;10274;49.022;9.338;2022-09-16T13:42:08;17.50;1.00
20231;DHT22;10274;49.022;9.338;2022-09-16T13:44:40;17.20;1.00
20231;DHT22;10274;49.022;9.338;2022-09-16T13:47:18;16.90;1.00
20231;DHT22;10274;49.022;9.338;2022-09-16T13:49:56;16.70;1.00
20231;DHT22;10274;49.022;9.338;2022-09-16T13:52:28;16.70;99.90
20231;DHT22;10274;49.022;9.338;2022-09-16T13:54:59;16.50;1.00
20231;DHT22;10274;49.022;9.338;2022-09-16T13:57:35;16.50;99.90
20231;DHT22;10274;49.022;9.338;2022-09-16T14:00:18;16.50;59.90
20231;DHT22;10274;49.022;9.338;2022-09-16T14:03:23;16.40;99.90
20231;DHT22;10274;49.022;9.338;2022-09-16T14:06:01;16.80;99.90
20231;DHT22;10274;49.022;9.338;2022-09-16T14:08:37;18.20;1.00
20231;DHT22;10274;49.022;9.338;2022-09-16T14:11:11;19.20;1.00
20231;DHT22;10274;49.022;9.338;2022-09-16T14:13:42;19.10;99.90
20231;DHT22;10274;49.022;9.338;2022-09-16T14:16:14;19.00;59.30
20231;DHT22;10274;49.022;9.338;2022-09-16T14:18:50;19.30;1.00
20231;DHT22;10274;49.022;9.338;2022-09-16T14:21:20;19.50;1.00
20231;DHT22;10274;49.022;9.338;2022-09-16T14:23:47;19.70;1.00
20231;DHT22;10274;49.022;9.338;2022-09-16T14:26:17;19.60;1.00
20231;DHT22;10274;49.022;9.338;2022-09-16T14:28:44;19.90;1.00
20231;DHT22;10274;49.022;9.338;2022-09-16T14:31:14;19.90;1.00
20231;DHT22;10274;49.022;9.338;2022-09-16T14:33:46;19.00;1.00
20231;DHT22;10274;49.022;9.338;2022-09-16T14:36:17;18.40;1.00
20231;DHT22;10274;49.022;9.338;2022-09-16T14:38:47;18.10;1.00
20231;DHT22;10274;49.022;9.338;2022-09-16T14:41:22;17.70;1.00
20231;DHT22;10274;49.022;9.338;2022-09-16T14:43:50;17.60;1.00
20231;DHT22;10274;49.022;9.338;2022-09-16T14:46:18;17.50;1.00
20231;DHT22;10274;49.022;9.338;2022-09-16T14:48:45;17.50;1.00
20231;DHT22;10274;49.022;9.338;2022-09-16T14:51:25;17.40;1.00
20231;DHT22;10274;49.022;9.338;2022-09-16T14:53:54;17.30;1.00
20231;DHT22;10274;49.022;9.338;2022-09-16T14:56:23;18.40;1.00
20231;DHT22;10274;49.022;9.338;2022-09-16T14:58:51;19.00;1.00
20231;DHT22;10274;49.022;9.338;2022-09-16T15:01:21;18.70;1.00
20231;DHT22;10274;49.022;9.338;2022-09-16T15:03:53;18.30;1.00
20231;DHT22;10274;49.022;9.338;2022-09-16T15:06:24;17.90;1.00
20231;DHT22;10274;49.022;9.338;2022-09-16T15:08:56;17.60;1.00
20231;DHT22;10274;49.022;9.338;2022-09-16T15:11:28;17.40;1.00
20231;DHT22;10274;49.022;9.338;2022-09-16T15:13:57;17.40;1.00
20231;DHT22;10274;49.022;9.338;2022-09-16T15:16:25;17.50;1.00
20231;DHT22;10274;49.022;9.338;2022-09-16T15:18:54;17.50;1.00
20231;DHT22;10274;49.022;9.338;2022-09-16T15:21:26;17.60;18.30
20231;DHT22;10274;49.022;9.338;2022-09-16T15:23:54;18.00;99.90
20231;DHT22;10274;49.022;9.338;2022-09-16T15:26:25;18.10;23.10
20231;DHT22;10274;49.022;9.338;2022-09-16T15:28:56;18.40;58.30
20231;DHT22;10274;49.022;9.338;2022-09-16T15:31:32;18.50;1.00
20231;DHT22;10274;49.022;9.338;2022-09-16T15:34:01;18.10;1.00
20231;DHT22;10274;49.022;9.338;2022-09-16T15:36:34;17.90;96.60
20231;DHT22;10274;49.022;9.338;2022-09-16T15:39:01;17.50;99.90
20231;DHT22;10274;49.022;9.338;2022-09-16T15:41:29;17.20;99.90
20231;DHT22;10274;49.022;9.338;2022-09-16T15:43:57;17.00;1.00
20231;DHT22;10274;49.022;9.338;2022-09-16T15:46:25;17.40;1.00
20231;DHT22;10274;49.022;9.338;2022-09-16T15:48:54;17.60;1.00
20231;DHT22;10274;49.022;9.338;2022-09-16T15:51:28;17.80;1.00
20231;DHT22;10274;49.022;9.338;2022-09-16T15:54:00;17.40;1.00
20231;DHT22;10274;49.022;9.338;2022-09-16T15:56:33;17.20;1.00
20231;DHT22;10274;49.022;9.338;2022-09-16T15:59:04;17.10;1.00
20231;DHT22;10274;49.022;9.338;2022-09-16T16:01:39;16.90;1.00
20231;DHT22;10274;49.022;9.338;2022-09-16T16:04:09;16.80;1.00
20231;DHT22;10274;49.022;9.338;2022-09-16T16:06:49;16.70;99.90
20231;DHT22;10274;49.022;9.338;2022-09-16T16:09:35;16.60;99.90
20231;DHT22;10274;49.022;9.338;2022-09-16T16:12:06;16.50;1.00
20231;DHT22;10274;49.022;9.338;2022-09-16T16:14:34;16.40;99.90
20231;DHT22;10274;49.022;9.338;2022-09-16T16:17:03;16.30;99.90